sensor_id;sensor_type;location;lat;lon;timestamp;P1;durP1;ratioP1;P2;durP2;ratioP2
69750;SDS011;57335;52.288;6.056;2023-04-03T00:00:49;3.80;;;1.40;;
69750;SDS011;57335;52.288;6.056;2023-04-03T00:03:15;4.00;;;1.10;;
69750;SDS011;57335;52.288;6.056;2023-04-03T00:05:43;5.35;;;1.40;;
69750;SDS011;57335;52.288;6.056;2023-04-03T00:10:36;4.15;;;1.13;;
69750;SDS011;57335;52.288;6.056;2023-04-03T00:13:04;3.08;;;0.88;;
69750;SDS011;57335;52.288;6.056;2023-04-03T00:15:31;4.00;;;1.48;;
69750;SDS011;57335;52.288;6.056;2023-04-03T00:17:58;3.08;;;1.10;;
69750;SDS011;57335;52.288;6.056;2023-04-03T00:20:25;4.38;;;1.10;;
69750;SDS011;57335;52.288;6.056;2023-04-03T00:25:17;4.88;;;1.20;;
69750;SDS011;57335;52.288;6.056;2023-04-03T00:27:44;3.35;;;1.38;;
69750;SDS011;57335;52.288;6.056;2023-04-03T00:30:12;4.28;;;1.50;;
69750;SDS011;57335;52.288;6.056;2023-04-03T00:32:39;3.47;;;1.25;;
69750;SDS011;57335;52.288;6.056;2023-04-03T00:35:06;5.68;;;1.30;;
69750;SDS011;57335;52.288;6.056;2023-04-03T00:37:34;4.38;;;1.30;;
69750;SDS011;57335;52.288;6.056;2023-04-03T00:40:01;5.30;;;1.30;;
69750;SDS011;57335;52.288;6.056;2023-04-03T00:42:28;6.78;;;1.70;;
69750;SDS011;57335;52.288;6.056;2023-04-03T00:47:24;4.50;;;1.63;;
69750;SDS011;57335;52.288;6.056;2023-04-03T00:49:50;2.95;;;1.20;;
69750;SDS011;57335;52.288;6.056;2023-04-03T00:52:19;5.25;;;1.70;;
69750;SDS011;57335;52.288;6.056;2023-04-03T00:54:50;6.30;;;1.65;;
69750;SDS011;57335;52.288;6.056;2023-04-03T00:57:20;3.17;;;1.40;;
69750;SDS011;57335;52.288;6.056;2023-04-03T00:59:49;4.40;;;1.27;;
69750;SDS011;57335;52.288;6.056;2023-04-03T01:02:19;7.85;;;1.73;;
69750;SDS011;57335;52.288;6.056;2023-04-03T01:07:17;3.83;;;1.42;;
69750;SDS011;57335;52.288;6.056;2023-04-03T01:09:48;7.28;;;1.70;;
69750;SDS011;57335;52.288;6.056;2023-04-03T01:12:19;3.53;;;1.50;;
69750;SDS011;57335;52.288;6.056;2023-04-03T01:14:50;7.72;;;1.80;;
69750;SDS011;57335;52.288;6.056;2023-04-03T01:25:45;5.15;;;1.65;;
69750;SDS011;57335;52.288;6.056;2023-04-03T01:28:33;4.20;;;1.50;;
69750;SDS011;57335;52.288;6.056;2023-04-03T01:31:12;5.65;;;1.48;;
69750;SDS011;57335;52.288;6.056;2023-04-03T01:34:09;5.05;;;1.42;;
69750;SDS011;57335;52.288;6.056;2023-04-03T01:36:36;4.75;;;1.95;;
69750;SDS011;57335;52.288;6.056;2023-04-03T01:41:28;4.07;;;1.38;;
69750;SDS011;57335;52.288;6.056;2023-04-03T01:43:55;4.65;;;1.55;;
69750;SDS011;57335;52.288;6.056;2023-04-03T01:46:21;3.72;;;1.52;;
69750;SDS011;57335;52.288;6.056;2023-04-03T01:48:48;5.80;;;1.70;;
69750;SDS011;57335;52.288;6.056;2023-04-03T01:51:15;4.72;;;1.55;;
69750;SDS011;57335;52.288;6.056;2023-04-03T01:53:41;6.60;;;2.00;;
69750;SDS011;57335;52.288;6.056;2023-04-03T01:56:08;6.40;;;1.70;;
69750;SDS011;57335;52.288;6.056;2023-04-03T02:01:01;4.25;;;1.73;;
69750;SDS011;57335;52.288;6.056;2023-04-03T02:03:27;4.25;;;1.52;;
69750;SDS011;57335;52.288;6.056;2023-04-03T02:08:20;7.07;;;1.80;;
69750;SDS011;57335;52.288;6.056;2023-04-03T02:10:47;4.45;;;1.60;;
69750;SDS011;57335;52.288;6.056;2023-04-03T02:13:14;5.93;;;2.03;;
69750;SDS011;57335;52.288;6.056;2023-04-03T02:15:41;6.57;;;1.80;;
69750;SDS011;57335;52.288;6.056;2023-04-03T02:18:08;7.90;;;1.90;;
69750;SDS011;57335;52.288;6.056;2023-04-03T02:20:34;4.55;;;1.85;;
69750;SDS011;57335;52.288;6.056;2023-04-03T02:23:01;6.60;;;1.70;;
69750;SDS011;57335;52.288;6.056;2023-04-03T02:27:54;4.60;;;1.60;;
69750;SDS011;57335;52.288;6.056;2023-04-03T02:30:20;8.63;;;2.03;;
69750;SDS011;57335;52.288;6.056;2023-04-03T02:32:47;8.05;;;2.28;;
69750;SDS011;57335;52.288;6.056;2023-04-03T02:35:13;7.50;;;2.45;;
69750;SDS011;57335;52.288;6.056;2023-04-03T02:40:06;5.68;;;1.83;;
69750;SDS011;57335;52.288;6.056;2023-04-03T02:42:33;4.75;;;1.88;;
69750;SDS011;57335;52.288;6.056;2023-04-03T02:47:26;4.72;;;1.65;;
69750;SDS011;57335;52.288;6.056;2023-04-03T02:49:53;7.07;;;2.00;;
69750;SDS011;57335;52.288;6.056;2023-04-03T02:52:20;21.90;;;1.58;;
69750;SDS011;57335;52.288;6.056;2023-04-03T02:54:46;4.88;;;1.80;;
69750;SDS011;57335;52.288;6.056;2023-04-03T02:59:39;5.15;;;1.90;;
69750;SDS011;57335;52.288;6.056;2023-04-03T03:02:06;7.53;;;1.98;;
69750;SDS011;57335;52.288;6.056;2023-04-03T03:04:34;7.18;;;2.20;;
69750;SDS011;57335;52.288;6.056;2023-04-03T03:07:01;8.02;;;1.83;;
69750;SDS011;57335;52.288;6.056;2023-04-03T03:09:28;5.97;;;1.77;;
69750;SDS011;57335;52.288;6.056;2023-04-03T03:11:55;5.93;;;1.90;;
69750;SDS011;57335;52.288;6.056;2023-04-03T03:14:23;7.03;;;1.90;;
69750;SDS011;57335;52.288;6.056;2023-04-03T03:16:49;6.22;;;2.13;;
69750;SDS011;57335;52.288;6.056;2023-04-03T03:19:16;5.25;;;2.03;;
69750;SDS011;57335;52.288;6.056;2023-04-03T03:21:42;4.93;;;1.90;;
69750;SDS011;57335;52.288;6.056;2023-04-03T03:24:08;5.38;;;1.77;;
69750;SDS011;57335;52.288;6.056;2023-04-03T03:26:35;7.85;;;2.30;;
69750;SDS011;57335;52.288;6.056;2023-04-03T03:29:01;8.77;;;2.30;;
69750;SDS011;57335;52.288;6.056;2023-04-03T03:31:28;6.18;;;1.90;;
69750;SDS011;57335;52.288;6.056;2023-04-03T03:36:21;6.15;;;1.75;;
69750;SDS011;57335;52.288;6.056;2023-04-03T03:38:48;4.32;;;1.70;;
69750;SDS011;57335;52.288;6.056;2023-04-03T03:41:14;6.03;;;2.03;;
69750;SDS011;57335;52.288;6.056;2023-04-03T03:46:07;6.43;;;2.13;;
69750;SDS011;57335;52.288;6.056;2023-04-03T03:50:59;8.10;;;2.08;;
69750;SDS011;57335;52.288;6.056;2023-04-03T03:55:52;5.40;;;1.90;;
69750;SDS011;57335;52.288;6.056;2023-04-03T03:58:19;9.18;;;2.15;;
69750;SDS011;57335;52.288;6.056;2023-04-03T04:00:45;5.28;;;2.15;;
69750;SDS011;57335;52.288;6.056;2023-04-03T04:03:12;5.88;;;1.60;;
69750;SDS011;57335;52.288;6.056;2023-04-03T04:08:05;8.88;;;2.20;;
69750;SDS011;57335;52.288;6.056;2023-04-03T04:10:32;7.97;;;2.60;;
69750;SDS011;57335;52.288;6.056;2023-04-03T04:12:59;11.40;;;2.60;;
69750;SDS011;57335;52.288;6.056;2023-04-03T04:17:52;4.70;;;1.80;;
69750;SDS011;57335;52.288;6.056;2023-04-03T04:22:45;4.82;;;1.98;;
69750;SDS011;57335;52.288;6.056;2023-04-03T04:25:11;3.75;;;1.13;;
69750;SDS011;57335;52.288;6.056;2023-04-03T04:27:37;4.90;;;1.75;;
69750;SDS011;57335;52.288;6.056;2023-04-03T04:32:30;4.05;;;1.58;;
69750;SDS011;57335;52.288;6.056;2023-04-03T04:37:23;6.30;;;1.60;;
69750;SDS011;57335;52.288;6.056;2023-04-03T04:39:50;5.63;;;2.10;;
69750;SDS011;57335;52.288;6.056;2023-04-03T04:42:16;6.95;;;2.25;;
69750;SDS011;57335;52.288;6.056;2023-04-03T04:44:43;8.50;;;2.25;;
69750;SDS011;57335;52.288;6.056;2023-04-03T04:47:09;7.72;;;2.40;;
69750;SDS011;57335;52.288;6.056;2023-04-03T04:49:36;6.20;;;2.53;;
69750;SDS011;57335;52.288;6.056;2023-04-03T04:52:02;7.22;;;2.40;;
69750;SDS011;57335;52.288;6.056;2023-04-03T04:56:55;4.20;;;1.58;;
69750;SDS011;57335;52.288;6.056;2023-04-03T04:59:21;8.27;;;2.40;;
69750;SDS011;57335;52.288;6.056;2023-04-03T05:01:48;5.80;;;2.13;;
69750;SDS011;57335;52.288;6.056;2023-04-03T05:06:41;5.53;;;1.98;;
69750;SDS011;57335;52.288;6.056;2023-04-03T05:09:07;7.78;;;2.97;;
69750;SDS011;57335;52.288;6.056;2023-04-03T05:11:33;7.15;;;2.78;;
69750;SDS011;57335;52.288;6.056;2023-04-03T05:14:00;8.38;;;3.00;;
69750;SDS011;57335;52.288;6.056;2023-04-03T05:16:26;8.10;;;2.72;;
69750;SDS011;57335;52.288;6.056;2023-04-03T05:21:19;5.97;;;2.03;;
69750;SDS011;57335;52.288;6.056;2023-04-03T05:23:45;7.28;;;2.13;;
69750;SDS011;57335;52.288;6.056;2023-04-03T05:26:12;8.27;;;2.30;;
69750;SDS011;57335;52.288;6.056;2023-04-03T05:31:04;9.27;;;2.10;;
69750;SDS011;57335;52.288;6.056;2023-04-03T05:33:31;6.93;;;2.40;;
69750;SDS011;57335;52.288;6.056;2023-04-03T05:36:01;6.85;;;2.55;;
69750;SDS011;57335;52.288;6.056;2023-04-03T05:38:29;8.68;;;2.30;;
69750;SDS011;57335;52.288;6.056;2023-04-03T05:40:55;5.68;;;2.33;;
69750;SDS011;57335;52.288;6.056;2023-04-03T05:43:21;9.55;;;2.13;;
69750;SDS011;57335;52.288;6.056;2023-04-03T05:48:14;6.45;;;2.10;;
69750;SDS011;57335;52.288;6.056;2023-04-03T05:50:41;5.13;;;1.95;;
69750;SDS011;57335;52.288;6.056;2023-04-03T05:53:10;6.32;;;2.15;;
69750;SDS011;57335;52.288;6.056;2023-04-03T05:55:49;7.05;;;2.20;;
69750;SDS011;57335;52.288;6.056;2023-04-03T05:58:16;4.50;;;1.90;;
69750;SDS011;57335;52.288;6.056;2023-04-03T06:00:42;7.55;;;2.00;;
69750;SDS011;57335;52.288;6.056;2023-04-03T06:03:09;7.18;;;2.30;;
69750;SDS011;57335;52.288;6.056;2023-04-03T06:05:35;7.10;;;2.10;;
69750;SDS011;57335;52.288;6.056;2023-04-03T06:08:03;5.47;;;1.90;;
69750;SDS011;57335;52.288;6.056;2023-04-03T06:10:29;5.00;;;2.00;;
69750;SDS011;57335;52.288;6.056;2023-04-03T06:12:56;5.93;;;1.67;;
69750;SDS011;57335;52.288;6.056;2023-04-03T06:15:22;5.10;;;1.65;;
69750;SDS011;57335;52.288;6.056;2023-04-03T06:17:49;5.32;;;1.83;;
69750;SDS011;57335;52.288;6.056;2023-04-03T06:20:15;6.35;;;1.95;;
69750;SDS011;57335;52.288;6.056;2023-04-03T06:22:42;5.55;;;1.33;;
69750;SDS011;57335;52.288;6.056;2023-04-03T06:25:08;5.82;;;1.95;;
69750;SDS011;57335;52.288;6.056;2023-04-03T06:27:35;6.30;;;1.85;;
69750;SDS011;57335;52.288;6.056;2023-04-03T06:30:01;5.13;;;1.52;;
69750;SDS011;57335;52.288;6.056;2023-04-03T06:32:28;5.97;;;1.35;;
69750;SDS011;57335;52.288;6.056;2023-04-03T06:34:54;4.30;;;1.50;;
69750;SDS011;57335;52.288;6.056;2023-04-03T06:37:21;4.63;;;1.20;;
69750;SDS011;57335;52.288;6.056;2023-04-03T06:39:49;5.70;;;1.80;;
69750;SDS011;57335;52.288;6.056;2023-04-03T06:42:15;6.32;;;1.70;;
69750;SDS011;57335;52.288;6.056;2023-04-03T06:44:41;6.03;;;1.75;;
69750;SDS011;57335;52.288;6.056;2023-04-03T06:47:09;5.05;;;1.60;;
69750;SDS011;57335;52.288;6.056;2023-04-03T06:49:38;7.43;;;1.60;;
69750;SDS011;57335;52.288;6.056;2023-04-03T06:52:05;8.07;;;1.60;;
69750;SDS011;57335;52.288;6.056;2023-04-03T06:54:31;5.22;;;1.40;;
69750;SDS011;57335;52.288;6.056;2023-04-03T06:56:58;5.57;;;2.00;;
69750;SDS011;57335;52.288;6.056;2023-04-03T06:59:25;5.00;;;1.60;;
69750;SDS011;57335;52.288;6.056;2023-04-03T07:01:51;4.15;;;1.25;;
69750;SDS011;57335;52.288;6.056;2023-04-03T07:04:18;4.55;;;1.40;;
69750;SDS011;57335;52.288;6.056;2023-04-03T07:06:44;5.30;;;1.52;;
69750;SDS011;57335;52.288;6.056;2023-04-03T07:09:10;6.72;;;1.80;;
69750;SDS011;57335;52.288;6.056;2023-04-03T07:11:37;3.90;;;1.40;;
69750;SDS011;57335;52.288;6.056;2023-04-03T07:14:03;5.15;;;1.40;;
69750;SDS011;57335;52.288;6.056;2023-04-03T07:16:30;3.20;;;1.20;;
69750;SDS011;57335;52.288;6.056;2023-04-03T07:18:56;4.50;;;1.38;;
69750;SDS011;57335;52.288;6.056;2023-04-03T07:21:23;4.88;;;1.42;;
69750;SDS011;57335;52.288;6.056;2023-04-03T07:23:50;4.72;;;1.50;;
69750;SDS011;57335;52.288;6.056;2023-04-03T07:26:16;5.32;;;1.33;;
69750;SDS011;57335;52.288;6.056;2023-04-03T07:28:42;4.72;;;1.48;;
69750;SDS011;57335;52.288;6.056;2023-04-03T07:31:12;5.25;;;1.20;;
69750;SDS011;57335;52.288;6.056;2023-04-03T07:33:39;6.63;;;1.60;;
69750;SDS011;57335;52.288;6.056;2023-04-03T07:36:06;6.32;;;1.42;;
69750;SDS011;57335;52.288;6.056;2023-04-03T07:38:34;7.05;;;1.40;;
69750;SDS011;57335;52.288;6.056;2023-04-03T07:41:01;5.70;;;1.60;;
69750;SDS011;57335;52.288;6.056;2023-04-03T07:43:29;4.60;;;1.42;;
69750;SDS011;57335;52.288;6.056;2023-04-03T07:45:56;4.88;;;1.50;;
69750;SDS011;57335;52.288;6.056;2023-04-03T07:48:24;5.50;;;1.48;;
69750;SDS011;57335;52.288;6.056;2023-04-03T07:50:51;3.95;;;1.10;;
69750;SDS011;57335;52.288;6.056;2023-04-03T07:53:18;4.07;;;1.20;;
69750;SDS011;57335;52.288;6.056;2023-04-03T07:55:48;4.93;;;1.30;;
69750;SDS011;57335;52.288;6.056;2023-04-03T07:58:16;4.05;;;1.30;;
69750;SDS011;57335;52.288;6.056;2023-04-03T08:00:44;3.72;;;1.02;;
69750;SDS011;57335;52.288;6.056;2023-04-03T08:03:12;4.60;;;1.42;;
69750;SDS011;57335;52.288;6.056;2023-04-03T08:05:43;5.30;;;1.08;;
69750;SDS011;57335;52.288;6.056;2023-04-03T08:08:11;5.43;;;1.27;;
69750;SDS011;57335;52.288;6.056;2023-04-03T08:10:39;3.30;;;1.20;;
69750;SDS011;57335;52.288;6.056;2023-04-03T08:13:06;4.32;;;1.20;;
69750;SDS011;57335;52.288;6.056;2023-04-03T08:15:33;2.75;;;1.23;;
69750;SDS011;57335;52.288;6.056;2023-04-03T08:18:00;1.90;;;0.90;;
69750;SDS011;57335;52.288;6.056;2023-04-03T08:20:27;3.25;;;1.10;;
69750;SDS011;57335;52.288;6.056;2023-04-03T08:22:57;3.88;;;1.20;;
69750;SDS011;57335;52.288;6.056;2023-04-03T08:25:23;2.63;;;1.00;;
69750;SDS011;57335;52.288;6.056;2023-04-03T08:27:50;3.10;;;0.88;;
69750;SDS011;57335;52.288;6.056;2023-04-03T08:30:16;4.32;;;1.20;;
69750;SDS011;57335;52.288;6.056;2023-04-03T08:32:43;3.40;;;1.00;;
69750;SDS011;57335;52.288;6.056;2023-04-03T08:35:09;4.50;;;1.23;;
69750;SDS011;57335;52.288;6.056;2023-04-03T08:37:36;3.70;;;0.95;;
69750;SDS011;57335;52.288;6.056;2023-04-03T08:40:04;2.67;;;0.88;;
69750;SDS011;57335;52.288;6.056;2023-04-03T08:48:27;2.33;;;0.80;;
69750;SDS011;57335;52.288;6.056;2023-04-03T08:50:58;4.15;;;1.40;;
69750;SDS011;57335;52.288;6.056;2023-04-03T08:53:29;3.15;;;0.95;;
69750;SDS011;57335;52.288;6.056;2023-04-03T08:56:02;3.08;;;0.90;;
69750;SDS011;57335;52.288;6.056;2023-04-03T08:58:49;3.45;;;0.80;;
69750;SDS011;57335;52.288;6.056;2023-04-03T09:01:20;2.17;;;1.05;;
69750;SDS011;57335;52.288;6.056;2023-04-03T09:03:51;1.67;;;0.80;;
69750;SDS011;57335;52.288;6.056;2023-04-03T09:06:21;3.20;;;0.98;;
69750;SDS011;57335;52.288;6.056;2023-04-03T09:08:56;2.10;;;0.77;;
69750;SDS011;57335;52.288;6.056;2023-04-03T09:11:35;3.75;;;0.85;;
69750;SDS011;57335;52.288;6.056;2023-04-03T09:14:34;1.27;;;0.50;;
69750;SDS011;57335;52.288;6.056;2023-04-03T09:19:41;1.60;;;0.60;;
69750;SDS011;57335;52.288;6.056;2023-04-03T09:22:17;3.40;;;0.85;;
69750;SDS011;57335;52.288;6.056;2023-04-03T09:24:48;2.75;;;0.80;;
69750;SDS011;57335;52.288;6.056;2023-04-03T09:27:21;1.77;;;0.70;;
69750;SDS011;57335;52.288;6.056;2023-04-03T09:29:47;2.42;;;0.50;;
69750;SDS011;57335;52.288;6.056;2023-04-03T09:32:20;2.13;;;0.70;;
69750;SDS011;57335;52.288;6.056;2023-04-03T09:34:52;2.58;;;0.70;;
69750;SDS011;57335;52.288;6.056;2023-04-03T09:40:05;2.08;;;0.43;;
69750;SDS011;57335;52.288;6.056;2023-04-03T09:42:52;1.17;;;0.60;;
69750;SDS011;57335;52.288;6.056;2023-04-03T09:45:31;0.85;;;0.50;;
69750;SDS011;57335;52.288;6.056;2023-04-03T09:53:26;2.00;;;0.68;;
69750;SDS011;57335;52.288;6.056;2023-04-03T09:55:57;2.53;;;0.75;;
69750;SDS011;57335;52.288;6.056;2023-04-03T09:58:37;1.38;;;0.52;;
69750;SDS011;57335;52.288;6.056;2023-04-03T10:01:26;2.60;;;0.60;;
69750;SDS011;57335;52.288;6.056;2023-04-03T10:06:48;1.15;;;0.50;;
69750;SDS011;57335;52.288;6.056;2023-04-03T10:14:37;0.63;;;0.47;;
69750;SDS011;57335;52.288;6.056;2023-04-03T10:17:09;0.93;;;0.57;;
69750;SDS011;57335;52.288;6.056;2023-04-03T10:19:47;0.35;;;0.30;;
69750;SDS011;57335;52.288;6.056;2023-04-03T10:22:40;0.47;;;0.47;;
69750;SDS011;57335;52.288;6.056;2023-04-03T10:30:48;1.60;;;0.60;;
69750;SDS011;57335;52.288;6.056;2023-04-03T10:39:08;1.88;;;0.70;;
69750;SDS011;57335;52.288;6.056;2023-04-03T10:55:57;0.50;;;0.50;;
69750;SDS011;57335;52.288;6.056;2023-04-03T10:58:36;1.05;;;0.60;;
69750;SDS011;57335;52.288;6.056;2023-04-03T11:01:21;0.73;;;0.40;;
69750;SDS011;57335;52.288;6.056;2023-04-03T11:03:54;0.85;;;0.47;;
69750;SDS011;57335;52.288;6.056;2023-04-03T11:06:25;1.92;;;0.57;;
69750;SDS011;57335;52.288;6.056;2023-04-03T11:09:01;3.47;;;0.80;;
69750;SDS011;57335;52.288;6.056;2023-04-03T11:11:38;1.52;;;0.50;;
69750;SDS011;57335;52.288;6.056;2023-04-03T11:14:11;1.88;;;0.80;;
69750;SDS011;57335;52.288;6.056;2023-04-03T11:16:45;2.70;;;0.80;;
69750;SDS011;57335;52.288;6.056;2023-04-03T11:19:20;1.67;;;0.47;;
69750;SDS011;57335;52.288;6.056;2023-04-03T11:22:01;1.65;;;0.80;;
69750;SDS011;57335;52.288;6.056;2023-04-03T11:24:34;1.45;;;0.60;;
69750;SDS011;57335;52.288;6.056;2023-04-03T11:27:04;1.05;;;0.45;;
69750;SDS011;57335;52.288;6.056;2023-04-03T11:29:32;1.55;;;0.73;;
69750;SDS011;57335;52.288;6.056;2023-04-03T11:34:40;1.98;;;0.65;;
69750;SDS011;57335;52.288;6.056;2023-04-03T11:37:21;3.30;;;0.70;;
69750;SDS011;57335;52.288;6.056;2023-04-03T11:39:59;1.65;;;0.65;;
69750;SDS011;57335;52.288;6.056;2023-04-03T11:42:32;2.08;;;0.90;;
69750;SDS011;57335;52.288;6.056;2023-04-03T11:45:15;3.22;;;0.93;;
69750;SDS011;57335;52.288;6.056;2023-04-03T11:50:30;3.28;;;0.70;;
69750;SDS011;57335;52.288;6.056;2023-04-03T11:53:12;2.58;;;0.77;;
69750;SDS011;57335;52.288;6.056;2023-04-03T11:55:52;3.92;;;1.10;;
69750;SDS011;57335;52.288;6.056;2023-04-03T11:58:31;2.45;;;0.60;;
69750;SDS011;57335;52.288;6.056;2023-04-03T12:01:10;2.53;;;0.80;;
69750;SDS011;57335;52.288;6.056;2023-04-03T12:04:05;1.85;;;0.60;;
69750;SDS011;57335;52.288;6.056;2023-04-03T12:09:00;2.78;;;0.75;;
69750;SDS011;57335;52.288;6.056;2023-04-03T12:11:28;2.30;;;0.80;;
69750;SDS011;57335;52.288;6.056;2023-04-03T12:16:24;1.95;;;0.77;;
69750;SDS011;57335;52.288;6.056;2023-04-03T12:26:38;3.35;;;0.93;;
69750;SDS011;57335;52.288;6.056;2023-04-03T12:29:20;4.70;;;0.80;;
69750;SDS011;57335;52.288;6.056;2023-04-03T12:32:12;1.02;;;0.63;;
69750;SDS011;57335;52.288;6.056;2023-04-03T12:46:09;3.08;;;0.80;;
69750;SDS011;57335;52.288;6.056;2023-04-03T12:51:14;3.75;;;1.00;;
69750;SDS011;57335;52.288;6.056;2023-04-03T12:53:43;3.25;;;0.73;;
69750;SDS011;57335;52.288;6.056;2023-04-03T12:56:19;2.75;;;1.23;;
69750;SDS011;57335;52.288;6.056;2023-04-03T12:58:47;2.60;;;0.68;;
69750;SDS011;57335;52.288;6.056;2023-04-03T13:01:16;1.55;;;0.70;;
69750;SDS011;57335;52.288;6.056;2023-04-03T13:03:45;1.98;;;0.70;;
69750;SDS011;57335;52.288;6.056;2023-04-03T13:06:19;1.67;;;0.70;;
69750;SDS011;57335;52.288;6.056;2023-04-03T13:08:53;3.10;;;0.90;;
69750;SDS011;57335;52.288;6.056;2023-04-03T13:11:24;2.67;;;0.75;;
69750;SDS011;57335;52.288;6.056;2023-04-03T13:13:54;2.40;;;0.85;;
69750;SDS011;57335;52.288;6.056;2023-04-03T13:16:25;3.55;;;0.90;;
69750;SDS011;57335;52.288;6.056;2023-04-03T13:18:52;2.10;;;1.05;;
69750;SDS011;57335;52.288;6.056;2023-04-03T13:23:55;2.03;;;1.00;;
69750;SDS011;57335;52.288;6.056;2023-04-03T13:26:40;3.70;;;0.85;;
69750;SDS011;57335;52.288;6.056;2023-04-03T13:29:17;2.97;;;1.05;;
69750;SDS011;57335;52.288;6.056;2023-04-03T13:31:56;2.83;;;0.82;;
69750;SDS011;57335;52.288;6.056;2023-04-03T13:34:25;3.85;;;1.52;;
69750;SDS011;57335;52.288;6.056;2023-04-03T13:39:27;3.63;;;1.00;;
69750;SDS011;57335;52.288;6.056;2023-04-03T13:41:59;2.58;;;0.90;;
69750;SDS011;57335;52.288;6.056;2023-04-03T13:47:01;1.90;;;0.60;;
69750;SDS011;57335;52.288;6.056;2023-04-03T13:49:44;2.30;;;0.88;;
69750;SDS011;57335;52.288;6.056;2023-04-03T13:52:28;2.90;;;0.85;;
69750;SDS011;57335;52.288;6.056;2023-04-03T13:55:22;1.65;;;0.90;;
69750;SDS011;57335;52.288;6.056;2023-04-03T13:57:59;3.33;;;1.00;;
69750;SDS011;57335;52.288;6.056;2023-04-03T14:00:29;2.55;;;0.93;;
69750;SDS011;57335;52.288;6.056;2023-04-03T14:02:59;2.83;;;0.88;;
69750;SDS011;57335;52.288;6.056;2023-04-03T14:05:26;3.45;;;1.00;;
69750;SDS011;57335;52.288;6.056;2023-04-03T14:07:53;6.70;;;1.23;;
69750;SDS011;57335;52.288;6.056;2023-04-03T14:10:20;2.22;;;0.77;;
69750;SDS011;57335;52.288;6.056;2023-04-03T14:12:47;4.32;;;1.70;;
69750;SDS011;57335;52.288;6.056;2023-04-03T14:15:24;3.67;;;1.42;;
69750;SDS011;57335;52.288;6.056;2023-04-03T14:17:53;2.63;;;0.90;;
69750;SDS011;57335;52.288;6.056;2023-04-03T14:20:21;2.28;;;0.80;;
69750;SDS011;57335;52.288;6.056;2023-04-03T14:22:50;2.65;;;0.93;;
69750;SDS011;57335;52.288;6.056;2023-04-03T14:25:16;7.35;;;1.40;;
69750;SDS011;57335;52.288;6.056;2023-04-03T14:27:45;2.25;;;1.13;;
69750;SDS011;57335;52.288;6.056;2023-04-03T14:30:35;4.22;;;1.10;;
69750;SDS011;57335;52.288;6.056;2023-04-03T14:33:00;1.60;;;0.80;;
69750;SDS011;57335;52.288;6.056;2023-04-03T14:35:27;2.75;;;1.17;;
69750;SDS011;57335;52.288;6.056;2023-04-03T14:37:55;2.33;;;0.70;;
69750;SDS011;57335;52.288;6.056;2023-04-03T14:40:23;2.42;;;1.00;;
69750;SDS011;57335;52.288;6.056;2023-04-03T14:42:52;3.80;;;0.80;;
69750;SDS011;57335;52.288;6.056;2023-04-03T14:45:19;2.67;;;0.93;;
69750;SDS011;57335;52.288;6.056;2023-04-03T14:47:46;3.33;;;0.80;;
69750;SDS011;57335;52.288;6.056;2023-04-03T14:50:16;4.65;;;1.05;;
69750;SDS011;57335;52.288;6.056;2023-04-03T14:52:44;1.50;;;0.60;;
69750;SDS011;57335;52.288;6.056;2023-04-03T14:55:11;2.30;;;0.90;;
69750;SDS011;57335;52.288;6.056;2023-04-03T14:57:41;3.10;;;0.95;;
69750;SDS011;57335;52.288;6.056;2023-04-03T15:00:11;2.08;;;0.73;;
69750;SDS011;57335;52.288;6.056;2023-04-03T15:02:39;1.98;;;0.70;;
69750;SDS011;57335;52.288;6.056;2023-04-03T15:05:07;3.10;;;0.88;;
69750;SDS011;57335;52.288;6.056;2023-04-03T15:07:36;1.80;;;0.73;;
69750;SDS011;57335;52.288;6.056;2023-04-03T15:12:41;3.03;;;0.90;;
69750;SDS011;57335;52.288;6.056;2023-04-03T15:15:08;3.65;;;1.02;;
69750;SDS011;57335;52.288;6.056;2023-04-03T15:17:35;1.48;;;0.68;;
69750;SDS011;57335;52.288;6.056;2023-04-03T15:20:03;1.95;;;0.70;;
69750;SDS011;57335;52.288;6.056;2023-04-03T15:22:37;3.13;;;1.42;;
69750;SDS011;57335;52.288;6.056;2023-04-03T15:25:03;4.10;;;1.20;;
69750;SDS011;57335;52.288;6.056;2023-04-03T15:27:30;4.35;;;1.00;;
69750;SDS011;57335;52.288;6.056;2023-04-03T15:29:57;6.95;;;1.20;;
69750;SDS011;57335;52.288;6.056;2023-04-03T15:32:23;3.13;;;0.80;;
69750;SDS011;57335;52.288;6.056;2023-04-03T15:34:49;2.78;;;1.00;;
69750;SDS011;57335;52.288;6.056;2023-04-03T15:37:21;3.80;;;0.88;;
69750;SDS011;57335;52.288;6.056;2023-04-03T15:39:47;3.75;;;0.85;;
69750;SDS011;57335;52.288;6.056;2023-04-03T15:42:13;2.25;;;0.70;;
69750;SDS011;57335;52.288;6.056;2023-04-03T15:44:40;3.70;;;0.90;;
69750;SDS011;57335;52.288;6.056;2023-04-03T15:47:06;1.23;;;0.77;;
69750;SDS011;57335;52.288;6.056;2023-04-03T15:49:33;7.28;;;1.20;;
69750;SDS011;57335;52.288;6.056;2023-04-03T15:52:00;3.92;;;0.93;;
69750;SDS011;57335;52.288;6.056;2023-04-03T15:54:26;4.30;;;1.10;;
69750;SDS011;57335;52.288;6.056;2023-04-03T15:56:54;4.28;;;1.27;;
69750;SDS011;57335;52.288;6.056;2023-04-03T15:59:20;2.92;;;0.75;;
69750;SDS011;57335;52.288;6.056;2023-04-03T16:01:47;3.05;;;1.15;;
69750;SDS011;57335;52.288;6.056;2023-04-03T16:04:14;2.53;;;0.80;;
69750;SDS011;57335;52.288;6.056;2023-04-03T16:06:42;2.92;;;0.77;;
69750;SDS011;57335;52.288;6.056;2023-04-03T16:09:09;3.88;;;1.08;;
69750;SDS011;57335;52.288;6.056;2023-04-03T16:11:36;3.13;;;0.90;;
69750;SDS011;57335;52.288;6.056;2023-04-03T16:14:02;3.38;;;0.90;;
69750;SDS011;57335;52.288;6.056;2023-04-03T16:16:31;3.25;;;0.90;;
69750;SDS011;57335;52.288;6.056;2023-04-03T16:18:57;7.80;;;1.10;;
69750;SDS011;57335;52.288;6.056;2023-04-03T16:21:24;2.47;;;0.88;;
69750;SDS011;57335;52.288;6.056;2023-04-03T16:23:51;2.05;;;0.77;;
69750;SDS011;57335;52.288;6.056;2023-04-03T16:26:17;2.95;;;0.88;;
69750;SDS011;57335;52.288;6.056;2023-04-03T16:28:44;2.25;;;0.93;;
69750;SDS011;57335;52.288;6.056;2023-04-03T16:31:10;1.52;;;0.85;;
69750;SDS011;57335;52.288;6.056;2023-04-03T16:33:37;2.83;;;1.20;;
69750;SDS011;57335;52.288;6.056;2023-04-03T16:36:04;3.15;;;0.90;;
69750;SDS011;57335;52.288;6.056;2023-04-03T16:38:31;1.75;;;0.95;;
69750;SDS011;57335;52.288;6.056;2023-04-03T16:40:57;8.32;;;1.52;;
69750;SDS011;57335;52.288;6.056;2023-04-03T16:43:23;2.20;;;1.00;;
69750;SDS011;57335;52.288;6.056;2023-04-03T16:45:50;4.75;;;1.00;;
69750;SDS011;57335;52.288;6.056;2023-04-03T16:48:16;2.72;;;0.73;;
69750;SDS011;57335;52.288;6.056;2023-04-03T16:50:46;1.60;;;0.90;;
69750;SDS011;57335;52.288;6.056;2023-04-03T16:53:13;2.40;;;0.88;;
69750;SDS011;57335;52.288;6.056;2023-04-03T16:55:39;2.38;;;0.95;;
69750;SDS011;57335;52.288;6.056;2023-04-03T16:58:06;4.13;;;0.93;;
69750;SDS011;57335;52.288;6.056;2023-04-03T17:00:32;3.40;;;1.10;;
69750;SDS011;57335;52.288;6.056;2023-04-03T17:02:59;3.53;;;1.25;;
69750;SDS011;57335;52.288;6.056;2023-04-03T17:05:26;3.60;;;0.93;;
69750;SDS011;57335;52.288;6.056;2023-04-03T17:07:52;4.43;;;1.13;;
69750;SDS011;57335;52.288;6.056;2023-04-03T17:10:18;3.30;;;1.20;;
69750;SDS011;57335;52.288;6.056;2023-04-03T17:12:45;3.97;;;1.00;;
69750;SDS011;57335;52.288;6.056;2023-04-03T17:15:11;3.35;;;1.20;;
69750;SDS011;57335;52.288;6.056;2023-04-03T17:17:37;3.65;;;1.13;;
69750;SDS011;57335;52.288;6.056;2023-04-03T17:20:04;4.78;;;1.13;;
69750;SDS011;57335;52.288;6.056;2023-04-03T17:22:32;6.05;;;1.55;;
69750;SDS011;57335;52.288;6.056;2023-04-03T17:24:58;3.75;;;0.88;;
69750;SDS011;57335;52.288;6.056;2023-04-03T17:27:25;4.05;;;1.25;;
69750;SDS011;57335;52.288;6.056;2023-04-03T17:29:51;4.63;;;1.35;;
69750;SDS011;57335;52.288;6.056;2023-04-03T17:32:18;3.35;;;1.15;;
69750;SDS011;57335;52.288;6.056;2023-04-03T17:34:47;2.70;;;1.00;;
69750;SDS011;57335;52.288;6.056;2023-04-03T17:37:14;3.22;;;1.25;;
69750;SDS011;57335;52.288;6.056;2023-04-03T17:39:40;2.85;;;0.80;;
69750;SDS011;57335;52.288;6.056;2023-04-03T17:42:07;2.53;;;0.95;;